createdAt,value
2024-02-02T00:00:09.694Z,87.31
2024-02-02T00:02:57.315Z,87.12
2024-02-02T00:05:24.897Z,86.95
2024-02-02T00:07:52.435Z,86.83
2024-02-02T00:10:20.001Z,86.65
2024-02-02T00:12:47.478Z,86.97
2024-02-02T00:15:15.062Z,86.70
2024-02-02T00:17:42.846Z,86.87
2024-02-02T00:20:10.451Z,86.74
2024-02-02T00:22:38.069Z,86.80
2024-02-02T00:25:05.656Z,86.55
2024-02-02T00:27:33.196Z,86.75
2024-02-02T00:30:00.798Z,86.81
2024-02-02T00:32:28.504Z,86.84
2024-02-02T00:34:56.143Z,86.67
2024-02-02T00:37:23.693Z,86.69
2024-02-02T00:39:51.207Z,86.82
2024-02-02T00:42:18.814Z,86.74
2024-02-02T00:44:46.876Z,86.64
2024-02-02T00:47:14.437Z,86.63
2024-02-02T00:49:41.980Z,86.74
2024-02-02T00:52:09.689Z,86.60
2024-02-02T00:54:37.383Z,86.37
2024-02-02T00:57:05.207Z,86.37
2024-02-02T00:59:32.773Z,86.51
2024-02-02T01:02:00.464Z,86.43
2024-02-02T01:04:28.109Z,86.59
2024-02-02T01:06:55.892Z,86.19
2024-02-02T01:09:23.583Z,86.22
2024-02-02T01:11:51.139Z,86.27
2024-02-02T01:14:18.647Z,86.16
2024-02-02T01:16:46.283Z,86.14
2024-02-02T01:19:13.881Z,86.18
2024-02-02T01:21:41.484Z,86.13
2024-02-02T01:24:09.051Z,86.35
2024-02-02T01:26:36.576Z,86.16
2024-02-02T01:29:04.074Z,85.94
2024-02-02T01:31:31.674Z,85.88
2024-02-02T01:33:59.311Z,85.83
2024-02-02T01:36:26.980Z,86.19
2024-02-02T01:38:54.749Z,86.03
2024-02-02T01:41:22.272Z,85.82
2024-02-02T01:43:49.814Z,86.07
2024-02-02T01:46:17.338Z,85.93
2024-02-02T01:48:45.098Z,85.85
2024-02-02T01:51:12.813Z,85.82
2024-02-02T01:53:40.309Z,85.87
2024-02-02T01:56:07.905Z,85.79
2024-02-02T01:58:35.401Z,85.80
2024-02-02T02:01:02.948Z,85.77
2024-02-02T02:03:30.945Z,85.68
2024-02-02T02:05:58.788Z,85.75
2024-02-02T02:08:26.364Z,85.57
2024-02-02T02:10:53.854Z,85.54
2024-02-02T02:13:21.433Z,85.67
2024-02-02T02:15:48.943Z,85.55
2024-02-02T02:18:16.598Z,85.51
2024-02-02T02:20:44.360Z,85.63
2024-02-02T02:23:12.207Z,85.38
2024-02-02T02:25:39.742Z,85.58
2024-02-02T02:28:07.279Z,85.58
2024-02-02T02:30:34.950Z,85.53
2024-02-02T02:33:02.751Z,85.49
2024-02-02T02:35:31.181Z,85.36
2024-02-02T02:37:58.868Z,85.16
2024-02-02T02:40:26.429Z,85.29
2024-02-02T02:42:53.945Z,85.41
2024-02-02T02:45:21.581Z,85.25
2024-02-02T02:47:49.447Z,85.35
2024-02-02T02:50:17.103Z,85.47
2024-02-02T02:52:44.602Z,85.40
2024-02-02T02:55:12.478Z,85.23
2024-02-02T02:57:40.137Z,85.64
2024-02-02T03:00:07.776Z,85.39
2024-02-02T03:02:35.333Z,85.62
2024-02-02T03:05:02.834Z,85.37
2024-02-02T03:07:30.502Z,85.39
2024-02-02T03:09:58.382Z,85.34
2024-02-02T03:12:28.421Z,85.49
2024-02-02T03:14:56.155Z,85.48
2024-02-02T03:17:23.812Z,85.58
2024-02-02T03:19:51.332Z,85.55
2024-02-02T03:22:18.864Z,85.70
2024-02-02T03:24:46.412Z,85.56
2024-02-02T03:27:13.914Z,85.50
2024-02-02T03:29:41.389Z,85.63
2024-02-02T03:32:08.926Z,85.71
2024-02-02T03:34:36.481Z,85.78
2024-02-02T03:37:04.064Z,85.70
2024-02-02T03:39:31.802Z,85.63
2024-02-02T03:41:59.444Z,85.74
2024-02-02T03:44:27.070Z,85.67
2024-02-02T03:46:54.580Z,85.68
2024-02-02T03:49:22.274Z,85.74
2024-02-02T03:51:50.063Z,85.66
2024-02-02T03:54:17.640Z,85.72
2024-02-02T03:56:45.191Z,85.77
2024-02-02T03:59:12.770Z,85.71
2024-02-02T04:01:40.323Z,85.67
2024-02-02T04:04:07.886Z,85.74
2024-02-02T04:06:35.844Z,85.77
2024-02-02T04:09:03.380Z,85.98
2024-02-02T04:11:30.979Z,85.74
2024-02-02T04:13:58.635Z,85.90
2024-02-02T04:16:26.139Z,85.80
2024-02-02T04:18:53.760Z,86.07
2024-02-02T04:21:21.540Z,86.04
2024-02-02T04:23:49.129Z,86.17
2024-02-02T04:26:16.658Z,85.97
2024-02-02T04:28:44.180Z,86.11
2024-02-02T04:31:11.673Z,86.12
2024-02-02T04:33:39.267Z,86.08
2024-02-02T04:36:06.896Z,86.15
2024-02-02T04:38:34.407Z,86.46
2024-02-02T04:41:01.956Z,86.24
2024-02-02T04:43:29.508Z,86.19
2024-02-02T04:45:58.017Z,86.41
2024-02-02T04:48:26.069Z,86.36
2024-02-02T04:50:53.785Z,86.16
2024-02-02T04:53:21.352Z,86.32
2024-02-02T04:55:48.958Z,86.39
2024-02-02T04:58:16.462Z,86.16
2024-02-02T05:00:44.129Z,86.34
2024-02-02T05:03:11.745Z,86.24
2024-02-02T05:05:39.503Z,86.40
2024-02-02T05:08:07.197Z,86.26
2024-02-02T05:10:34.758Z,86.43
2024-02-02T05:13:02.275Z,86.57
2024-02-02T05:15:29.880Z,86.48
2024-02-02T05:17:57.555Z,86.48
2024-02-02T05:20:25.362Z,86.65
2024-02-02T05:22:53.049Z,86.54
2024-02-02T05:25:20.604Z,86.51
2024-02-02T05:27:48.179Z,86.64
2024-02-02T05:30:15.780Z,86.64
2024-02-02T05:32:43.490Z,86.72
2024-02-02T05:35:11.234Z,86.60
2024-02-02T05:37:38.766Z,86.77
2024-02-02T05:40:06.299Z,86.75
2024-02-02T05:42:33.891Z,86.65
2024-02-02T05:45:01.417Z,86.69
2024-02-02T05:47:29.015Z,86.55
2024-02-02T05:49:56.668Z,86.51
2024-02-02T05:52:24.286Z,86.56
2024-02-02T05:54:51.789Z,86.43
2024-02-02T05:57:19.355Z,86.57
2024-02-02T05:59:46.867Z,86.73
2024-02-02T06:02:14.448Z,86.90
2024-02-02T06:04:42.011Z,87.03
2024-02-02T06:07:09.690Z,87.10
2024-02-02T06:09:37.632Z,87.30
2024-02-02T06:12:05.149Z,87.03
2024-02-02T06:14:32.639Z,87.20
2024-02-02T06:17:00.198Z,87.05
2024-02-02T06:19:27.833Z,87.05
2024-02-02T06:21:55.373Z,87.18
2024-02-02T06:24:22.982Z,87.12
2024-02-02T06:26:50.539Z,87.44
2024-02-02T06:29:18.141Z,87.21
2024-02-02T06:31:45.660Z,87.40
2024-02-02T06:34:13.641Z,87.50
2024-02-02T06:36:41.293Z,87.67
2024-02-02T06:39:08.916Z,87.55
2024-02-02T06:41:36.732Z,87.63
2024-02-02T06:44:04.302Z,87.44
2024-02-02T06:46:31.821Z,87.37
2024-02-02T06:48:59.375Z,87.47
2024-02-02T06:51:26.952Z,87.48
2024-02-02T06:53:54.579Z,87.45
2024-02-02T06:56:22.117Z,87.47
2024-02-02T06:58:49.608Z,87.51
2024-02-02T07:01:17.302Z,87.45
2024-02-02T07:03:44.954Z,87.71
2024-02-02T07:06:12.648Z,87.37
2024-02-02T07:08:40.250Z,87.62
2024-02-02T07:11:07.788Z,87.68
2024-02-02T07:13:35.388Z,87.62
2024-02-02T07:16:02.905Z,87.76
2024-02-02T07:18:31.221Z,87.58
2024-02-02T07:20:58.798Z,87.59
2024-02-02T07:23:26.464Z,87.61
2024-02-02T07:25:53.940Z,87.61
2024-02-02T07:28:21.434Z,87.68
2024-02-02T07:30:49.064Z,87.55
2024-02-02T07:33:16.792Z,87.64
2024-02-02T07:35:44.543Z,87.29
2024-02-02T07:38:12.077Z,87.63
2024-02-02T07:40:39.544Z,87.71
2024-02-02T07:43:07.092Z,87.58
2024-02-02T07:45:34.701Z,87.82
2024-02-02T07:48:02.390Z,87.75
2024-02-02T07:50:29.931Z,87.60
2024-02-02T07:52:57.521Z,87.58
2024-02-02T07:55:25.025Z,87.53
2024-02-02T07:57:52.648Z,87.70
2024-02-02T08:00:20.232Z,87.74
2024-02-02T08:02:47.954Z,87.78
2024-02-02T08:05:15.495Z,87.82
2024-02-02T08:07:42.972Z,87.91
2024-02-02T08:10:10.650Z,87.88
2024-02-02T08:12:38.335Z,87.97
2024-02-02T08:15:06.010Z,87.98
2024-02-02T08:17:33.581Z,88.01
2024-02-02T08:20:01.201Z,88.04
2024-02-02T08:22:28.979Z,87.94
2024-02-02T08:24:56.551Z,88.16
2024-02-02T08:27:24.189Z,87.78
2024-02-02T08:29:51.673Z,87.95
2024-02-02T08:32:19.203Z,88.11
2024-02-02T08:34:46.758Z,88.08
2024-02-02T08:37:14.265Z,87.78
2024-02-02T08:39:41.883Z,87.61
2024-02-02T08:42:09.455Z,87.61
2024-02-02T08:44:37.095Z,87.82
2024-02-02T08:47:04.683Z,87.68
2024-02-02T08:49:33.227Z,87.60
2024-02-02T08:52:00.823Z,87.53
2024-02-02T08:54:28.482Z,87.33
2024-02-02T08:56:56.225Z,87.52
2024-02-02T08:59:23.774Z,87.10
2024-02-02T09:01:51.275Z,87.14
2024-02-02T09:04:19.941Z,87.06
2024-02-02T09:06:47.809Z,87.06
2024-02-02T09:09:15.538Z,86.72
2024-02-02T09:11:43.141Z,86.65
2024-02-02T09:14:10.631Z,86.59
2024-02-02T09:16:38.222Z,86.64
2024-02-02T09:19:05.876Z,86.59
2024-02-02T09:21:33.578Z,86.53
2024-02-02T09:24:01.250Z,86.41
2024-02-02T09:26:28.894Z,86.16
2024-02-02T09:28:56.510Z,86.04
2024-02-02T09:31:24.266Z,85.84
2024-02-02T09:33:52.064Z,85.75
2024-02-02T09:36:19.812Z,85.76
2024-02-02T09:38:47.424Z,85.85
2024-02-02T09:41:14.986Z,85.94
2024-02-02T09:43:42.486Z,85.71
2024-02-02T09:46:10.022Z,85.85
2024-02-02T09:48:37.687Z,85.52
2024-02-02T09:51:05.644Z,85.72
2024-02-02T09:53:33.192Z,85.61
2024-02-02T09:56:00.912Z,85.63
2024-02-02T09:58:28.436Z,85.22
2024-02-02T10:00:56.057Z,85.04
2024-02-02T10:03:23.921Z,85.09
2024-02-02T10:05:51.627Z,84.78
2024-02-02T10:08:19.170Z,84.55
2024-02-02T10:10:46.759Z,84.45
2024-02-02T10:13:14.332Z,84.61
2024-02-02T10:15:41.877Z,84.41
2024-02-02T10:18:09.550Z,84.35
2024-02-02T10:20:37.174Z,84.34
2024-02-02T10:23:04.713Z,83.93
2024-02-02T10:25:32.271Z,83.65
2024-02-02T10:27:59.744Z,83.15
2024-02-02T10:30:27.350Z,83.30
2024-02-02T10:32:55.086Z,83.26
2024-02-02T10:35:22.717Z,83.20
2024-02-02T10:37:50.244Z,83.38
2024-02-02T10:40:17.829Z,83.35
2024-02-02T10:42:45.351Z,83.42
2024-02-02T10:45:13.039Z,83.24
2024-02-02T10:47:40.624Z,83.24
2024-02-02T10:50:08.280Z,83.04
2024-02-02T10:52:35.916Z,83.10
2024-02-02T10:55:03.620Z,83.10
2024-02-02T10:57:31.355Z,82.92
2024-02-02T10:59:58.920Z,83.00
2024-02-02T11:02:26.545Z,82.93
2024-02-02T11:04:54.185Z,82.34
2024-02-02T11:07:22.052Z,82.31
2024-02-02T11:09:49.678Z,82.29
2024-02-02T11:12:17.234Z,82.22
2024-02-02T11:14:44.911Z,82.15
2024-02-02T11:17:12.573Z,82.10
2024-02-02T11:19:40.440Z,82.05
2024-02-02T11:22:08.069Z,82.04
2024-02-02T11:24:35.767Z,81.93
2024-02-02T11:27:03.364Z,81.76
2024-02-02T11:29:30.869Z,81.94
2024-02-02T11:31:58.528Z,81.86
2024-02-02T11:34:26.215Z,81.60
2024-02-02T11:36:53.975Z,81.11
2024-02-02T11:39:21.638Z,81.20
2024-02-02T11:41:49.246Z,81.27
2024-02-02T11:44:16.777Z,81.32
2024-02-02T11:46:44.320Z,81.15
2024-02-02T11:49:11.933Z,81.07
2024-02-02T11:51:39.711Z,81.16
2024-02-02T11:54:07.623Z,81.17
2024-02-02T11:56:35.281Z,80.90
2024-02-02T11:59:02.839Z,80.66
2024-02-02T12:01:30.403Z,80.54
2024-02-02T12:03:57.899Z,80.40
2024-02-02T12:06:25.627Z,80.20
2024-02-02T12:08:53.386Z,80.08
2024-02-02T12:11:29.180Z,80.02
2024-02-02T12:14:01.149Z,80.01
2024-02-02T12:16:28.696Z,79.92
2024-02-02T12:18:56.362Z,79.88
2024-02-02T12:21:23.950Z,79.93
2024-02-02T12:23:51.585Z,79.95
2024-02-02T12:26:19.184Z,79.87
2024-02-02T12:28:46.735Z,79.68
2024-02-02T12:31:14.512Z,79.34
2024-02-02T12:33:42.157Z,79.63
2024-02-02T12:36:12.699Z,79.43
2024-02-02T12:38:40.794Z,79.47
2024-02-02T12:41:08.349Z,78.98
2024-02-02T12:43:35.918Z,79.27
2024-02-02T12:46:03.474Z,79.32
2024-02-02T12:48:31.243Z,79.21
2024-02-02T12:50:58.985Z,79.15
2024-02-02T12:53:26.660Z,79.04
2024-02-02T12:55:54.280Z,79.18
2024-02-02T12:58:23.548Z,79.27
2024-02-02T13:00:51.107Z,79.07
2024-02-02T13:03:19.010Z,78.97
2024-02-02T13:05:47.111Z,78.77
2024-02-02T13:08:14.964Z,78.88
2024-02-02T13:10:42.528Z,78.82
2024-02-02T13:13:10.026Z,78.54
2024-02-02T13:15:37.611Z,78.40
2024-02-02T13:18:05.201Z,78.37
2024-02-02T13:20:32.743Z,78.27
2024-02-02T13:23:00.341Z,78.15
2024-02-02T13:25:27.865Z,78.17
2024-02-02T13:27:55.434Z,78.32
2024-02-02T13:30:23.160Z,78.33
2024-02-02T13:32:50.751Z,78.16
2024-02-02T13:35:18.390Z,78.35
2024-02-02T13:37:46.137Z,78.09
2024-02-02T13:40:13.760Z,77.96
2024-02-02T13:42:41.504Z,77.68
2024-02-02T13:45:09.431Z,77.60
2024-02-02T13:47:45.191Z,77.64
2024-02-02T13:50:12.904Z,77.51
2024-02-02T13:52:40.791Z,77.29
2024-02-02T13:55:08.491Z,77.03
2024-02-02T13:57:36.187Z,77.17
2024-02-02T14:00:03.830Z,77.13
2024-02-02T14:02:31.407Z,76.88
2024-02-02T14:04:59.044Z,77.10
2024-02-02T14:07:26.688Z,77.10
2024-02-02T14:09:54.359Z,77.02
2024-02-02T14:12:22.109Z,76.95
2024-02-02T14:14:50.166Z,76.81
2024-02-02T14:17:18.110Z,76.72
2024-02-02T14:19:45.755Z,76.72
2024-02-02T14:22:13.306Z,76.42
2024-02-02T14:24:40.899Z,76.46
2024-02-02T14:27:08.655Z,76.47
2024-02-02T14:29:36.253Z,76.53
2024-02-02T14:32:03.794Z,76.37
2024-02-02T14:34:31.485Z,76.42
2024-02-02T14:36:59.138Z,76.12
2024-02-02T14:39:26.997Z,75.89
2024-02-02T14:41:54.944Z,75.82
2024-02-02T14:44:22.490Z,75.75
2024-02-02T14:46:50.012Z,75.81
2024-02-02T14:49:17.938Z,76.14
2024-02-02T14:51:45.616Z,76.11
2024-02-02T14:54:13.160Z,76.07
2024-02-02T14:56:40.738Z,75.86
2024-02-02T14:59:08.275Z,75.94
2024-02-02T15:01:35.882Z,75.94
2024-02-02T15:04:03.583Z,76.00
2024-02-02T15:06:31.403Z,76.12
2024-02-02T15:08:59.007Z,76.11
2024-02-02T15:11:26.622Z,76.03
2024-02-02T15:13:54.231Z,76.20
2024-02-02T15:16:21.734Z,76.14
2024-02-02T15:18:49.386Z,76.16
2024-02-02T15:21:16.987Z,76.23
2024-02-02T15:23:44.512Z,76.28
2024-02-02T15:26:12.031Z,76.11
2024-02-02T15:28:39.568Z,76.17
2024-02-02T15:31:07.270Z,76.18
2024-02-02T15:33:34.999Z,76.27
2024-02-02T15:39:15.307Z,76.33
2024-02-02T15:41:49.037Z,76.23
2024-02-02T15:44:16.621Z,76.26
2024-02-02T15:46:44.605Z,76.27
2024-02-02T15:49:12.188Z,76.47
2024-02-02T15:51:39.995Z,76.52
2024-02-02T15:54:07.966Z,76.57
2024-02-02T15:56:35.499Z,76.74
2024-02-02T15:59:03.042Z,76.89
2024-02-02T16:01:30.630Z,76.96
2024-02-02T16:03:58.219Z,76.87
2024-02-02T16:06:25.794Z,76.82
2024-02-02T16:08:53.413Z,77.05
2024-02-02T16:11:20.895Z,77.25
2024-02-02T16:13:55.246Z,77.27
2024-02-02T16:16:22.903Z,77.30
2024-02-02T16:18:50.580Z,77.26
2024-02-02T16:21:18.346Z,77.43
2024-02-02T16:23:45.915Z,77.59
2024-02-02T16:26:13.445Z,77.61
2024-02-02T16:28:40.990Z,77.65
2024-02-02T16:31:08.567Z,77.71
2024-02-02T16:33:36.249Z,77.65
2024-02-02T16:36:03.873Z,77.64
2024-02-02T16:38:31.899Z,77.57
2024-02-02T16:40:59.421Z,77.72
2024-02-02T16:43:26.976Z,77.66
2024-02-02T16:45:54.623Z,77.89
2024-02-02T16:48:22.429Z,77.78
2024-02-02T16:50:50.024Z,77.80
2024-02-02T16:53:17.515Z,77.70
2024-02-02T16:55:45.426Z,77.79
2024-02-02T16:58:13.006Z,77.70
2024-02-02T17:00:40.563Z,77.83
2024-02-02T17:03:09.231Z,78.00
2024-02-02T17:05:37.846Z,77.99
2024-02-02T17:08:05.414Z,77.85
2024-02-02T17:10:33.506Z,77.99
2024-02-02T17:13:01.165Z,78.09
2024-02-02T17:15:28.768Z,78.23
2024-02-02T17:17:56.370Z,78.20
2024-02-02T17:20:24.076Z,78.37
2024-02-02T17:22:51.688Z,78.35
2024-02-02T17:25:19.204Z,78.43
2024-02-02T17:27:46.958Z,78.50
2024-02-02T17:30:14.818Z,78.40
2024-02-02T17:32:42.538Z,78.33
2024-02-02T17:35:10.387Z,78.43
2024-02-02T17:37:39.510Z,78.61
2024-02-02T17:40:07.734Z,78.51
2024-02-02T17:42:35.303Z,78.81
2024-02-02T17:45:02.859Z,78.57
2024-02-02T17:47:30.553Z,78.77
2024-02-02T17:49:59.621Z,78.74
2024-02-02T17:52:28.322Z,78.57
2024-02-02T17:54:56.024Z,78.74
2024-02-02T17:57:23.924Z,78.85
2024-02-02T17:59:51.395Z,78.84
2024-02-02T18:02:18.941Z,78.90
2024-02-02T18:04:46.619Z,78.91
2024-02-02T18:07:14.299Z,78.89
2024-02-02T18:09:41.898Z,79.14
2024-02-02T18:12:09.404Z,78.88
2024-02-02T18:14:36.927Z,78.98
2024-02-02T18:17:04.502Z,79.05
2024-02-02T18:19:32.147Z,79.08
2024-02-02T18:21:59.693Z,79.31
2024-02-02T18:24:27.280Z,79.21
2024-02-02T18:26:55.020Z,79.45
2024-02-02T18:29:22.616Z,79.15
2024-02-02T18:31:50.122Z,79.44
2024-02-02T18:34:17.726Z,79.31
2024-02-02T18:36:45.411Z,79.36
2024-02-02T18:39:13.194Z,79.60
2024-02-02T18:41:40.751Z,79.40
2024-02-02T18:44:08.451Z,79.57
2024-02-02T18:46:35.967Z,79.52
2024-02-02T18:49:03.590Z,79.73
2024-02-02T18:51:31.240Z,79.65
2024-02-02T18:53:58.823Z,79.65
2024-02-02T18:56:26.372Z,79.54
2024-02-02T18:58:53.958Z,79.78
2024-02-02T19:01:21.543Z,79.69
2024-02-02T19:03:49.180Z,79.64
2024-02-02T19:06:17.024Z,79.63
2024-02-02T19:08:44.775Z,79.74
2024-02-02T19:11:12.384Z,79.71
2024-02-02T19:13:39.973Z,79.72
2024-02-02T19:16:07.573Z,79.62
2024-02-02T19:18:35.294Z,79.76
2024-02-02T19:21:02.876Z,79.79
2024-02-02T19:23:30.421Z,79.81
2024-02-02T19:25:57.978Z,79.79
2024-02-02T19:28:25.504Z,79.64
2024-02-02T19:30:53.113Z,79.71
2024-02-02T19:33:20.779Z,79.78
2024-02-02T19:35:48.435Z,79.81
2024-02-02T19:38:16.065Z,79.77
2024-02-02T19:40:43.594Z,79.97
2024-02-02T19:43:11.143Z,79.88
2024-02-02T19:45:38.783Z,79.92
2024-02-02T19:48:06.474Z,79.85
2024-02-02T19:50:34.347Z,79.92
2024-02-02T19:53:02.002Z,79.81
2024-02-02T19:55:29.661Z,79.81
2024-02-02T19:57:57.371Z,79.84
2024-02-02T20:00:24.937Z,79.83
2024-02-02T20:02:52.513Z,79.78
2024-02-02T20:05:23.706Z,79.88
2024-02-02T20:07:52.788Z,79.94
2024-02-02T20:10:20.351Z,79.65
2024-02-02T20:12:47.866Z,79.88
2024-02-02T20:15:15.605Z,79.83
2024-02-02T20:17:43.144Z,79.78
2024-02-02T20:20:10.686Z,79.91
2024-02-02T20:22:38.263Z,79.87
2024-02-02T20:25:05.929Z,79.81
2024-02-02T20:27:33.517Z,79.70
2024-02-02T20:30:01.039Z,79.55
2024-02-02T20:32:28.615Z,79.60
2024-02-02T20:34:56.282Z,79.56
2024-02-02T20:37:23.893Z,79.54
2024-02-02T20:39:51.940Z,79.53
2024-02-02T20:42:19.554Z,79.68
2024-02-02T20:44:47.130Z,79.62
2024-02-02T20:47:14.678Z,79.68
2024-02-02T20:49:42.216Z,79.73
2024-02-02T20:52:09.789Z,79.73
2024-02-02T20:54:37.353Z,79.79
2024-02-02T20:57:05.004Z,79.87
2024-02-02T20:59:32.634Z,80.04
2024-02-02T21:02:00.212Z,79.96
2024-02-02T21:04:27.930Z,79.95
2024-02-02T21:06:55.653Z,80.06
2024-02-02T21:09:23.272Z,80.11
2024-02-02T21:11:53.238Z,80.06
2024-02-02T21:14:20.784Z,80.27
2024-02-02T21:16:48.408Z,80.19
2024-02-02T21:19:16.040Z,80.34
2024-02-02T21:21:43.643Z,80.44
2024-02-02T21:24:11.216Z,80.53
2024-02-02T21:26:38.788Z,80.28
2024-02-02T21:29:06.465Z,80.34
2024-02-02T21:31:33.962Z,80.45
2024-02-02T21:34:01.517Z,80.53
2024-02-02T21:36:29.118Z,80.56
2024-02-02T21:38:57.061Z,80.51
2024-02-02T21:41:24.576Z,80.56
2024-02-02T21:43:52.066Z,80.61
2024-02-02T21:46:19.581Z,80.80
2024-02-02T21:48:47.128Z,80.79
2024-02-02T21:51:14.827Z,80.90
2024-02-02T21:53:42.359Z,80.94
2024-02-02T21:56:09.866Z,81.09
2024-02-02T21:58:37.461Z,81.14
2024-02-02T22:01:05.213Z,81.11
2024-02-02T22:03:32.856Z,81.17
2024-02-02T22:06:00.402Z,81.21
2024-02-02T22:08:27.959Z,81.44
2024-02-02T22:10:55.844Z,81.27
2024-02-02T22:13:23.366Z,81.42
2024-02-02T22:15:50.944Z,81.45
2024-02-02T22:18:18.617Z,81.66
2024-02-02T22:20:46.431Z,81.48
2024-02-02T22:23:14.675Z,81.55
2024-02-02T22:25:42.320Z,81.60
2024-02-02T22:28:09.819Z,81.70
2024-02-02T22:30:37.419Z,81.71
2024-02-02T22:33:05.124Z,81.62
2024-02-02T22:35:32.676Z,81.61
2024-02-02T22:38:00.234Z,81.43
2024-02-02T22:40:27.741Z,81.58
2024-02-02T22:42:55.708Z,81.51
2024-02-02T22:45:23.210Z,81.51
2024-02-02T22:47:50.867Z,81.51
2024-02-02T22:50:18.582Z,81.55
2024-02-02T22:52:46.403Z,81.47
2024-02-02T22:55:14.168Z,81.43
2024-02-02T22:57:41.690Z,81.24
2024-02-02T23:00:09.321Z,81.42
2024-02-02T23:02:36.973Z,81.33
2024-02-02T23:05:04.442Z,81.41
2024-02-02T23:07:32.017Z,81.31
2024-02-02T23:09:59.596Z,81.36
2024-02-02T23:12:27.201Z,81.44
2024-02-02T23:14:54.890Z,81.35
2024-02-02T23:17:22.542Z,81.30
2024-02-02T23:19:50.218Z,81.51
2024-02-02T23:22:18.209Z,81.51
2024-02-02T23:24:45.824Z,81.34
2024-02-02T23:27:13.416Z,81.37
2024-02-02T23:29:41.000Z,81.35
2024-02-02T23:32:08.567Z,81.32
2024-02-02T23:34:36.200Z,81.35
2024-02-02T23:37:03.824Z,81.48
2024-02-02T23:39:31.368Z,81.46
2024-02-02T23:41:58.908Z,81.37
2024-02-02T23:44:26.431Z,81.46
2024-02-02T23:46:54.019Z,81.28
2024-02-02T23:49:21.689Z,81.31
2024-02-02T23:51:49.691Z,81.53
2024-02-02T23:54:17.277Z,81.49
2024-02-02T23:56:44.884Z,81.52
2024-02-02T23:59:12.524Z,81.38
